Winfield, Iowa
Current Conditions -  °F | °C
As of 12:15 AM on Monday 26 Jan 2015 (Local Time) from KMPZ Reporting Station
Overcast Overcast  
Wind Chill: -8°   Ceiling: 2600
Heat Index: -5°   Visibility: 10mi
Dew Point: -8°   Wind: 5mph
Humidity: 82%   Direction: 350°N
Pressure: 30.07"   Gusts: NA
Location:  41.12°N, 91.44°W
Report Text: KMPZ 260615Z AUTO 35004KT 10SM OVC026 M05/M08 A3007 RMK AO2 T10501077
Loading
Personal Weather Stations






























Interactive Weather Map New forecast layout! Learn more

10-Day Weather Forecast

Advertisements
Track Severe Weather on mobile